Time;durP1;ratioP1;P1;durP2;ratioP2;P2;SDS_P1;SDS_P2;PMS_P1;PMS_P2;Temp;Humidity;BMP_temperature;BMP_pressure;BME280_temperature;BME280_humidity;BME280_pressure;Samples;Min_cycle;Max_cycle;Signal;HPM_P1;HPM_P2
2023/04/13 00:00:45;;;;;;;7.50;3.88;;;6.30;99.90;;;;;;4985559;28;20045;-80
2023/04/13 00:03:11;;;;;;;6.50;3.67;;;6.30;99.90;;;;;;5019999;28;20056;-82
2023/04/13 00:05:38;;;;;;;6.13;3.58;;;6.40;99.90;;;;;;5020118;28;20045;-83
2023/04/13 00:08:04;;;;;;;6.80;3.90;;;6.50;99.90;;;;;;4988049;28;20092;-81
2023/04/13 00:10:40;;;;;;;5.13;3.60;;;6.50;99.90;;;;;;4987265;28;20533;-80
2023/04/13 00:13:10;;;;;;;5.75;4.03;;;6.60;99.90;;;;;;5005430;28;20369;-80
2023/04/13 00:15:39;;;;;;;7.03;4.28;;;6.60;99.90;;;;;;4986281;28;20077;-80
2023/04/13 00:18:05;;;;;;;4.60;3.45;;;6.70;99.90;;;;;;5018235;28;20056;-80
2023/04/13 00:20:31;;;;;;;6.78;4.20;;;6.70;99.90;;;;;;5018499;28;20091;-80
2023/04/13 00:22:57;;;;;;;5.55;3.55;;;6.70;99.90;;;;;;5002735;28;20046;-80
2023/04/13 00:25:26;;;;;;;6.35;3.92;;;6.70;99.90;;;;;;5011473;28;20046;-80
2023/04/13 00:27:52;;;;;;;4.72;3.83;;;6.80;99.90;;;;;;5004698;28;20079;-80
2023/04/13 00:30:20;;;;;;;5.75;3.45;;;6.80;99.90;;;;;;4995026;28;20493;-81
2023/04/13 00:32:46;;;;;;;7.63;3.65;;;6.80;99.90;;;;;;5007843;28;20081;-80
2023/04/13 00:35:17;;;;;;;5.75;3.95;;;6.90;99.90;;;;;;5004033;28;20593;-79
2023/04/13 00:37:45;;;;;;;6.07;3.72;;;6.90;99.90;;;;;;5005451;28;20045;-79
2023/04/13 00:40:14;;;;;;;6.38;4.38;;;7.00;99.90;;;;;;4998018;28;20071;-79
2023/04/13 00:42:46;;;;;;;6.88;4.40;;;7.00;99.90;;;;;;4988547;28;20041;-84
2023/04/13 00:45:12;;;;;;;5.55;4.38;;;6.90;99.90;;;;;;5004729;28;20072;-79
2023/04/13 00:47:40;;;;;;;6.57;5.30;;;6.90;99.90;;;;;;4995117;28;20049;-81
2023/04/13 00:50:07;;;;;;;9.10;6.07;;;6.90;99.90;;;;;;5016752;28;20120;-84
2023/04/13 00:52:39;;;;;;;6.82;5.07;;;6.80;99.90;;;;;;5009474;28;20618;-81
2023/04/13 00:55:06;;;;;;;9.48;5.25;;;6.80;99.90;;;;;;4996061;28;20049;-82
2023/04/13 00:57:33;;;;;;;6.85;4.95;;;6.70;99.90;;;;;;5013079;28;20049;-80
2023/04/13 01:00:00;;;;;;;7.18;5.10;;;6.60;99.90;;;;;;4996829;28;20037;-79
2023/04/13 01:02:26;;;;;;;7.30;4.45;;;6.60;99.90;;;;;;5012229;28;20037;-80
2023/04/13 01:04:53;;;;;;;6.03;4.50;;;6.60;99.90;;;;;;5009563;28;20100;-80
2023/04/13 01:07:47;;;;;;;6.05;4.20;;;6.50;99.90;;;;;;4995668;28;20054;-80
2023/04/13 01:10:26;;;;;;;;;;;6.50;99.90;;;;;;5000401;28;20046;-78
2023/04/13 01:13:06;;;;;;;5.93;3.72;;;6.50;99.90;;;;;;5015682;28;20376;-78
2023/04/13 01:15:36;;;;;;;7.97;3.80;;;6.40;99.90;;;;;;5015994;28;20493;-79
2023/04/13 01:18:07;;;;;;;7.80;3.90;;;6.40;99.90;;;;;;5014204;28;20307;-78
2023/04/13 01:20:36;;;;;;;5.85;3.40;;;6.40;99.90;;;;;;4998840;28;20057;-79
2023/04/13 01:23:24;;;;;;;6.45;3.90;;;6.40;99.90;;;;;;5016991;28;20080;-78
2023/04/13 01:26:05;;;;;;;6.20;3.92;;;6.40;99.90;;;;;;5015315;28;20700;-78
2023/04/13 01:28:33;;;;;;;6.35;3.95;;;6.30;99.90;;;;;;5028054;28;20050;-78
2023/04/13 01:31:05;;;;;;;6.30;3.58;;;6.30;99.90;;;;;;5001145;28;20056;-77
2023/04/13 01:33:41;;;;;;;5.32;3.92;;;6.40;99.90;;;;;;4976261;28;20041;-79
2023/04/13 01:36:10;;;;;;;6.13;3.70;;;6.30;99.90;;;;;;4979496;28;20852;-77
2023/04/13 01:38:36;;;;;;;7.30;3.85;;;6.30;99.90;;;;;;5012672;28;20049;-79
2023/04/13 01:41:02;;;;;;;6.63;3.75;;;6.20;99.90;;;;;;5012857;28;20053;-78
2023/04/13 01:43:29;;;;;;;5.95;3.85;;;6.30;99.90;;;;;;5013056;28;20645;-78
2023/04/13 01:46:10;;;;;;;6.15;3.40;;;6.30;99.90;;;;;;5014079;28;20103;-79
2023/04/13 01:48:36;;;;;;;5.25;2.80;;;6.30;99.90;;;;;;5008505;28;20915;-78
2023/04/13 01:51:18;;;;;;;5.30;3.25;;;6.30;99.90;;;;;;5012072;28;20176;-78
2023/04/13 01:53:55;;;;;;;7.78;3.08;;;6.30;99.90;;;;;;4995101;28;20124;-78
2023/04/13 01:56:25;;;;;;;6.15;2.85;;;6.30;99.90;;;;;;5013660;28;20049;-79
2023/04/13 01:58:56;;;;;;;5.53;3.10;;;6.30;99.90;;;;;;4997753;28;20041;-78
2023/04/13 02:01:24;;;;;;;5.00;2.72;;;6.30;99.90;;;;;;4982197;28;20141;-78
2023/04/13 02:03:50;;;;;;;5.20;2.60;;;6.30;99.90;;;;;;5022969;28;20041;-78
2023/04/13 02:06:16;;;;;;;6.47;2.95;;;6.30;99.90;;;;;;4993984;28;20044;-78
2023/04/13 02:08:41;;;;;;;5.35;2.50;;;6.30;99.90;;;;;;4979780;28;20036;-78
2023/04/13 02:11:07;;;;;;;4.00;2.40;;;6.30;99.90;;;;;;4972612;28;20037;-77
2023/04/13 02:13:33;;;;;;;4.47;2.72;;;6.30;99.90;;;;;;4991603;28;20042;-78
2023/04/13 02:15:59;;;;;;;5.18;2.22;;;6.30;99.90;;;;;;4996107;28;20073;-78
2023/04/13 02:18:26;;;;;;;4.68;2.80;;;6.30;99.90;;;;;;4978399;28;20289;-79
2023/04/13 02:21:21;;;;;;;8.35;3.17;;;6.30;99.90;;;;;;5009650;28;20152;-79
2023/04/13 02:23:47;;;;;;;8.52;2.83;;;6.30;99.90;;;;;;4978159;28;20065;-78
2023/04/13 02:26:18;;;;;;;5.60;2.75;;;6.30;99.90;;;;;;4978456;28;20607;-79
2023/04/13 02:28:45;;;;;;;6.72;2.47;;;6.30;99.90;;;;;;5011112;28;20057;-78
2023/04/13 02:31:15;;;;;;;6.25;2.95;;;6.20;99.90;;;;;;4993842;28;20041;-82
2023/04/13 02:33:42;;;;;;;6.28;2.65;;;6.30;99.90;;;;;;4995084;28;20091;-79
2023/04/13 02:36:15;;;;;;;6.55;3.00;;;6.30;99.90;;;;;;4994634;28;20038;-81
2023/04/13 02:38:42;;;;;;;6.00;2.45;;;6.20;99.90;;;;;;4993630;28;20132;-81
2023/04/13 02:41:11;;;;;;;5.57;2.80;;;6.20;99.90;;;;;;5005037;28;20053;-78
2023/04/13 02:43:37;;;;;;;7.05;2.83;;;6.20;99.90;;;;;;4987627;28;20049;-79
2023/04/13 02:46:03;;;;;;;6.38;2.90;;;6.20;99.90;;;;;;4990972;28;20044;-80
2023/04/13 02:48:32;;;;;;;5.25;3.05;;;6.20;99.90;;;;;;5020693;28;20053;-80
2023/04/13 02:50:57;;;;;;;6.07;2.70;;;6.20;99.90;;;;;;4965137;28;20745;-79
2023/04/13 02:53:26;;;;;;;4.65;2.50;;;6.20;99.90;;;;;;4989192;28;20124;-80
2023/04/13 02:55:52;;;;;;;5.30;2.65;;;6.20;99.90;;;;;;4985926;28;20052;-81
2023/04/13 02:58:20;;;;;;;7.00;3.25;;;6.20;99.90;;;;;;4989177;28;20057;-85
2023/04/13 03:00:47;;;;;;;4.97;2.60;;;6.20;99.90;;;;;;4999789;28;20044;-82
2023/04/13 03:03:16;;;;;;;6.07;3.15;;;6.20;99.90;;;;;;4987368;28;20124;-83
2023/04/13 03:05:42;;;;;;;5.80;2.92;;;6.30;99.90;;;;;;4988545;28;20033;-82
2023/04/13 03:08:09;;;;;;;4.43;2.58;;;6.30;99.90;;;;;;4988477;28;20215;-81
2023/04/13 03:10:36;;;;;;;6.10;3.00;;;6.30;99.90;;;;;;4988284;28;20041;-82
2023/04/13 03:13:02;;;;;;;5.28;2.90;;;6.30;99.90;;;;;;4990152;28;20059;-81
2023/04/13 03:15:31;;;;;;;4.00;2.65;;;6.30;99.90;;;;;;4982670;28;20045;-80
2023/04/13 03:17:58;;;;;;;4.97;3.13;;;6.30;99.90;;;;;;4986489;28;20045;-82
2023/04/13 03:20:27;;;;;;;6.72;3.50;;;6.30;99.90;;;;;;4988799;28;20817;-82
2023/04/13 03:22:54;;;;;;;5.47;2.97;;;6.30;99.90;;;;;;5000719;28;20517;-83
2023/04/13 03:25:20;;;;;;;7.53;3.10;;;6.30;99.90;;;;;;4984985;28;20045;-83
2023/04/13 03:27:46;;;;;;;5.78;3.40;;;6.30;99.90;;;;;;4986741;28;20058;-80
2023/04/13 03:30:12;;;;;;;6.63;3.65;;;6.30;99.90;;;;;;4986250;28;20063;-83
2023/04/13 03:32:38;;;;;;;5.07;3.72;;;6.30;99.90;;;;;;5002696;28;21304;-81
2023/04/13 03:35:05;;;;;;;5.25;3.72;;;6.30;99.90;;;;;;5001869;28;20523;-78
2023/04/13 03:37:38;;;;;;;5.85;3.50;;;6.30;99.90;;;;;;5003019;28;20037;-82
2023/04/13 03:40:08;;;;;;;7.53;4.32;;;6.30;99.90;;;;;;5015698;28;20496;-82
2023/04/13 03:42:34;;;;;;;6.57;3.88;;;6.30;99.90;;;;;;4985649;28;20109;-81
2023/04/13 03:45:00;;;;;;;6.03;4.20;;;6.30;99.90;;;;;;4999143;28;20044;-81
2023/04/13 03:47:28;;;;;;;6.55;4.50;;;6.40;99.90;;;;;;4985886;28;20089;-83
2023/04/13 03:49:54;;;;;;;6.32;4.00;;;6.30;99.90;;;;;;4986256;28;20045;-83
2023/04/13 03:52:20;;;;;;;6.53;4.40;;;6.30;99.90;;;;;;4973424;28;20558;-83
2023/04/13 03:54:46;;;;;;;5.90;4.20;;;6.40;99.90;;;;;;4971325;28;20049;-84
2023/04/13 03:57:12;;;;;;;4.82;4.25;;;6.40;99.90;;;;;;4982386;28;20496;-82
2023/04/13 03:59:38;;;;;;;5.78;4.53;;;6.30;99.90;;;;;;4984408;28;20288;-83
2023/04/13 04:02:05;;;;;;;5.70;4.13;;;6.40;99.90;;;;;;4973210;28;20046;-82
2023/04/13 04:04:31;;;;;;;6.95;4.47;;;6.40;99.90;;;;;;4981515;28;20136;-83
2023/04/13 04:06:58;;;;;;;5.65;4.55;;;6.40;99.90;;;;;;4967857;28;20118;-82
2023/04/13 04:09:30;;;;;;;5.68;4.45;;;6.40;99.90;;;;;;4984687;28;20041;-81
2023/04/13 04:11:56;;;;;;;6.15;4.18;;;6.50;99.90;;;;;;5000709;28;20080;-82
2023/04/13 04:14:22;;;;;;;6.90;4.32;;;6.40;99.90;;;;;;4983860;28;20048;-82
2023/04/13 04:16:48;;;;;;;7.30;4.32;;;6.40;99.90;;;;;;4970177;28;20512;-83
2023/04/13 04:19:14;;;;;;;7.03;4.45;;;6.50;99.90;;;;;;4975981;28;20060;-82
2023/04/13 04:21:43;;;;;;;6.07;4.85;;;6.50;99.90;;;;;;4968712;28;20056;-81
2023/04/13 04:24:11;;;;;;;5.88;4.88;;;6.40;99.90;;;;;;5019324;28;20574;-81
2023/04/13 04:26:39;;;;;;;7.03;5.03;;;6.40;99.90;;;;;;4947926;28;20038;-81
2023/04/13 04:29:07;;;;;;;6.43;5.05;;;6.40;99.90;;;;;;4984275;28;20072;-84
2023/04/13 04:31:34;;;;;;;6.15;5.10;;;6.40;99.90;;;;;;4985190;28;20063;-81
2023/04/13 04:34:03;;;;;;;6.82;5.15;;;6.40;99.90;;;;;;4985799;28;20045;-80
2023/04/13 04:36:29;;;;;;;6.25;5.38;;;6.40;99.90;;;;;;5001106;28;20087;-83
2023/04/13 04:39:00;;;;;;;7.70;5.90;;;6.40;99.90;;;;;;4980378;28;20049;-81
2023/04/13 04:41:27;;;;;;;6.75;5.63;;;6.40;99.90;;;;;;4986470;28;20049;-81
2023/04/13 04:43:55;;;;;;;6.90;6.20;;;6.40;99.90;;;;;;4997720;28;20465;-80
2023/04/13 04:46:24;;;;;;;8.80;5.93;;;6.40;99.90;;;;;;4984301;28;20045;-81
2023/04/13 04:48:59;;;;;;;8.00;6.88;;;6.40;99.90;;;;;;5000507;28;20045;-82
2023/04/13 04:51:28;;;;;;;8.98;6.43;;;6.50;99.90;;;;;;5000400;28;20087;-81
2023/04/13 04:54:00;;;;;;;8.20;6.95;;;6.40;99.90;;;;;;4981432;28;20083;-80
2023/04/13 04:56:26;;;;;;;8.27;6.25;;;6.40;99.90;;;;;;4982361;28;20050;-81
2023/04/13 04:58:52;;;;;;;8.57;7.65;;;6.40;99.90;;;;;;4984058;28;20060;-81
2023/04/13 05:01:21;;;;;;;8.48;6.78;;;6.40;99.90;;;;;;4984814;28;20409;-81
2023/04/13 05:03:50;;;;;;;9.00;6.95;;;6.40;99.90;;;;;;5017032;28;20072;-81
2023/04/13 05:06:22;;;;;;;8.20;6.95;;;6.40;99.90;;;;;;4983661;28;20096;-80
2023/04/13 05:08:47;;;;;;;7.22;6.40;;;6.40;99.90;;;;;;4982351;28;21056;-81
2023/04/13 05:11:13;;;;;;;10.02;7.72;;;6.40;99.90;;;;;;4965257;28;20654;-81
2023/04/13 05:13:42;;;;;;;8.45;7.10;;;6.40;99.90;;;;;;4981884;28;20060;-80
2023/04/13 05:16:09;;;;;;;8.57;7.10;;;6.40;99.90;;;;;;5012403;28;20072;-81
2023/04/13 05:18:44;;;;;;;8.85;7.70;;;6.30;99.90;;;;;;4980948;28;20526;-81
2023/04/13 05:21:12;;;;;;;8.60;6.93;;;6.30;99.90;;;;;;4982672;28;20099;-80
2023/04/13 05:23:38;;;;;;;8.40;7.10;;;6.30;99.90;;;;;;4967631;28;20045;-80
2023/04/13 05:26:05;;;;;;;10.32;7.40;;;6.30;99.90;;;;;;4996240;28;20425;-80
2023/04/13 05:28:34;;;;;;;9.23;7.30;;;6.30;99.90;;;;;;4965204;28;20089;-78
2023/04/13 05:31:05;;;;;;;8.95;7.35;;;6.20;99.90;;;;;;4981349;28;20053;-80
2023/04/13 05:33:35;;;;;;;10.63;7.50;;;6.30;99.90;;;;;;4980216;28;20063;-82
2023/04/13 05:36:02;;;;;;;9.80;6.73;;;6.30;99.90;;;;;;4995138;28;20057;-81
2023/04/13 05:38:29;;;;;;;9.07;7.32;;;6.30;99.90;;;;;;4982085;28;20284;-81
2023/04/13 05:40:56;;;;;;;10.70;7.60;;;6.30;99.90;;;;;;4963479;28;20348;-82
2023/04/13 05:43:22;;;;;;;10.63;8.20;;;6.30;99.90;;;;;;4981913;28;20129;-76
2023/04/13 05:45:48;;;;;;;12.15;8.65;;;6.40;99.90;;;;;;4995970;28;20970;-77
2023/04/13 05:48:14;;;;;;;9.35;7.50;;;6.40;99.90;;;;;;4982989;28;20398;-74
2023/04/13 05:50:40;;;;;;;12.32;8.32;;;6.40;99.90;;;;;;4976233;28;20092;-75
2023/04/13 05:53:06;;;;;;;11.07;8.57;;;6.40;99.90;;;;;;4998745;28;20068;-71
2023/04/13 05:55:32;;;;;;;9.98;7.63;;;6.50;99.90;;;;;;4984199;28;20034;-74
2023/04/13 05:58:00;;;;;;;12.63;7.55;;;6.50;99.90;;;;;;4983556;28;20041;-75
2023/04/13 06:00:26;;;;;;;11.10;6.57;;;6.60;99.90;;;;;;4984527;28;20048;-75
2023/04/13 06:02:53;;;;;;;12.35;6.88;;;6.60;99.90;;;;;;4967108;28;20464;-75
2023/04/13 06:05:19;;;;;;;10.32;6.85;;;6.70;99.90;;;;;;4985410;28;20041;-76
2023/04/13 06:07:46;;;;;;;8.40;6.35;;;6.70;99.90;;;;;;5018523;28;20531;-75
2023/04/13 06:10:16;;;;;;;10.23;6.80;;;6.70;99.90;;;;;;4984879;28;20046;-75
2023/04/13 06:12:42;;;;;;;9.70;6.40;;;6.70;99.90;;;;;;5001221;28;20853;-75
2023/04/13 06:15:09;;;;;;;12.48;7.03;;;6.80;99.90;;;;;;4968231;28;20381;-76
2023/04/13 06:17:35;;;;;;;9.32;6.05;;;6.80;99.90;;;;;;4985396;28;20213;-75
2023/04/13 06:20:01;;;;;;;11.50;6.78;;;6.80;99.90;;;;;;4999121;28;20339;-75
2023/04/13 06:22:27;;;;;;;11.50;6.50;;;6.80;99.90;;;;;;4982627;28;20602;-74
2023/04/13 06:24:52;;;;;;;10.80;6.68;;;6.80;99.90;;;;;;4985694;28;20080;-71
2023/04/13 06:27:18;;;;;;;11.73;7.07;;;6.80;99.90;;;;;;5013739;28;20204;-72
2023/04/13 06:29:44;;;;;;;9.63;6.78;;;6.80;99.90;;;;;;5000178;28;20045;-71
2023/04/13 06:32:11;;;;;;;8.73;7.30;;;6.80;99.90;;;;;;4984953;28;20688;-71
2023/04/13 06:34:37;;;;;;;11.13;7.90;;;6.90;99.90;;;;;;5006416;28;20527;-71
2023/04/13 06:37:03;;;;;;;10.45;7.38;;;6.90;99.90;;;;;;5006749;28;20135;-71
2023/04/13 06:39:30;;;;;;;12.07;8.93;;;7.00;99.90;;;;;;5007675;28;20045;-71
2023/04/13 06:41:56;;;;;;;9.73;7.95;;;7.00;99.90;;;;;;5006036;28;20402;-71
2023/04/13 06:44:26;;;;;;;13.43;8.40;;;7.20;99.90;;;;;;5020981;28;20149;-71
2023/04/13 06:46:52;;;;;;;12.90;8.00;;;7.20;99.90;;;;;;4975451;28;20092;-70
2023/04/13 06:49:18;;;;;;;12.98;7.10;;;7.30;99.90;;;;;;4989370;28;20052;-71
2023/04/13 06:51:43;;;;;;;10.07;7.00;;;7.40;99.90;;;;;;5005431;28;20889;-70
2023/04/13 06:54:09;;;;;;;11.30;7.00;;;7.40;99.90;;;;;;4991864;28;20256;-71
2023/04/13 06:56:35;;;;;;;10.00;5.82;;;7.50;99.90;;;;;;4973443;28;20392;-71
2023/04/13 06:59:01;;;;;;;10.35;6.20;;;7.50;99.90;;;;;;4988967;28;20068;-71
2023/04/13 07:01:27;;;;;;;10.20;5.55;;;7.60;99.90;;;;;;5005479;28;20057;-70
2023/04/13 07:03:57;;;;;;;9.48;5.22;;;7.60;99.90;;;;;;5005529;28;20520;-70
2023/04/13 07:06:26;;;;;;;11.63;6.00;;;7.70;99.90;;;;;;5005804;28;20064;-71
2023/04/13 07:08:52;;;;;;;8.35;5.45;;;7.70;99.90;;;;;;5004617;28;20076;-71
2023/04/13 07:11:18;;;;;;;9.68;6.05;;;7.70;99.90;;;;;;5007036;28;22029;-70
2023/04/13 07:13:44;;;;;;;9.18;5.18;;;7.70;99.90;;;;;;4986589;28;20046;-74
2023/04/13 07:16:13;;;;;;;9.00;5.30;;;7.70;99.90;;;;;;5022117;28;20842;-74
2023/04/13 07:18:38;;;;;;;11.07;5.35;;;7.70;99.90;;;;;;5020670;28;20049;-75
2023/04/13 07:21:04;;;;;;;9.48;4.93;;;7.80;99.90;;;;;;4973496;28;20594;-73
2023/04/13 07:23:32;;;;;;;9.30;4.93;;;7.90;99.90;;;;;;5006357;28;20060;-70
2023/04/13 07:25:58;;;;;;;8.90;4.53;;;8.00;99.90;;;;;;5007014;28;20041;-71
2023/04/13 07:28:24;;;;;;;9.98;4.25;;;8.10;99.90;;;;;;5006728;28;20057;-71
2023/04/13 07:30:51;;;;;;;8.50;3.40;;;8.30;99.90;;;;;;4974876;28;20124;-70
2023/04/13 07:33:16;;;;;;;7.32;3.60;;;8.40;99.90;;;;;;5007369;28;20085;-71
2023/04/13 07:35:42;;;;;;;7.93;3.58;;;8.40;99.90;;;;;;5021314;28;20128;-71
2023/04/13 07:38:08;;;;;;;8.82;4.03;;;8.30;99.90;;;;;;4990825;28;20172;-71
2023/04/13 07:40:36;;;;;;;9.63;4.55;;;8.30;99.90;;;;;;5003991;28;20063;-70
2023/04/13 07:43:02;;;;;;;10.55;3.97;;;8.40;99.90;;;;;;4989789;28;20144;-71
2023/04/13 07:45:30;;;;;;;8.68;3.75;;;8.50;99.90;;;;;;4990615;28;20054;-71
2023/04/13 07:47:56;;;;;;;8.85;3.90;;;8.50;99.90;;;;;;4990843;28;20053;-73
2023/04/13 07:50:22;;;;;;;9.73;4.50;;;8.50;99.90;;;;;;5005232;28;20451;-74
2023/04/13 07:52:48;;;;;;;9.23;4.22;;;8.50;99.90;;;;;;5006369;28;20041;-73
2023/04/13 07:55:14;;;;;;;9.82;4.63;;;8.40;99.90;;;;;;4988948;28;20524;-75
2023/04/13 07:57:40;;;;;;;8.05;4.30;;;8.40;99.90;;;;;;5002870;28;20617;-70
2023/04/13 08:00:07;;;;;;;14.38;5.70;;;8.30;99.90;;;;;;4989305;28;20314;-70
2023/04/13 08:02:33;;;;;;;9.63;5.00;;;8.20;99.90;;;;;;5005477;28;20092;-70
2023/04/13 08:04:58;;;;;;;12.43;6.50;;;8.00;99.90;;;;;;4988932;28;20120;-70
2023/04/13 08:07:25;;;;;;;11.57;5.63;;;7.90;99.90;;;;;;5006072;28;20566;-70
2023/04/13 08:09:51;;;;;;;11.77;5.43;;;7.90;99.90;;;;;;5003126;28;20124;-70
2023/04/13 08:12:17;;;;;;;10.35;6.25;;;7.80;99.90;;;;;;5004331;28;20060;-70
2023/04/13 08:14:43;;;;;;;9.15;5.65;;;7.80;99.90;;;;;;4987840;28;20487;-70
2023/04/13 08:17:10;;;;;;;9.90;5.00;;;7.80;99.90;;;;;;5004486;28;20049;-71
2023/04/13 08:19:36;;;;;;;8.25;4.28;;;7.80;99.90;;;;;;4988441;28;20052;-71
2023/04/13 08:22:03;;;;;;;8.77;4.53;;;7.80;99.90;;;;;;4986129;28;20131;-70
2023/04/13 08:24:29;;;;;;;10.10;4.82;;;7.80;99.90;;;;;;5006315;28;20049;-71
2023/04/13 08:26:57;;;;;;;8.68;4.93;;;7.80;99.90;;;;;;5003600;28;20484;-71
2023/04/13 08:29:24;;;;;;;10.90;5.05;;;7.80;99.90;;;;;;5003879;28;20060;-72
2023/04/13 08:31:51;;;;;;;10.57;5.10;;;7.80;99.90;;;;;;5005596;28;20098;-70
2023/04/13 08:34:17;;;;;;;7.13;3.38;;;7.80;99.90;;;;;;5006397;28;20512;-73
2023/04/13 08:36:44;;;;;;;8.65;3.90;;;7.90;99.90;;;;;;4988069;28;20049;-72
2023/04/13 08:39:11;;;;;;;6.28;3.08;;;7.80;99.90;;;;;;5005263;28;20616;-71
2023/04/13 08:41:38;;;;;;;7.88;3.38;;;7.90;99.90;;;;;;4972033;28;20052;-71
2023/04/13 08:44:05;;;;;;;9.88;3.08;;;7.90;99.90;;;;;;5004149;28;20046;-71
2023/04/13 08:46:33;;;;;;;6.68;2.50;;;8.00;99.90;;;;;;5018333;28;20050;-72
2023/04/13 08:49:00;;;;;;;8.05;3.17;;;8.00;99.90;;;;;;4971959;28;20520;-71
2023/04/13 08:51:28;;;;;;;3.97;2.10;;;8.20;99.90;;;;;;5002597;28;20057;-70
2023/04/13 08:53:57;;;;;;;3.58;1.45;;;8.30;99.90;;;;;;5006252;28;20500;-71
2023/04/13 08:56:26;;;;;;;5.40;1.70;;;8.40;99.90;;;;;;5003192;28;20046;-71
2023/04/13 08:58:57;;;;;;;4.38;1.58;;;8.30;99.90;;;;;;5004521;28;20045;-71
2023/04/13 09:01:26;;;;;;;3.92;1.13;;;8.20;99.90;;;;;;5003869;28;20068;-71
2023/04/13 09:04:12;;;;;;;4.07;1.40;;;8.10;99.90;;;;;;4987947;28;20041;-71
2023/04/13 09:06:40;;;;;;;5.70;1.92;;;8.10;99.90;;;;;;5004555;28;20503;-71
2023/04/13 09:09:13;;;;;;;5.93;1.20;;;8.00;99.90;;;;;;5002331;28;20124;-72
2023/04/13 09:11:41;;;;;;;1.55;0.93;;;7.90;99.90;;;;;;5004423;28;20054;-71
2023/04/13 09:14:08;;;;;;;3.20;1.13;;;7.80;99.90;;;;;;4987844;28;20033;-72
2023/04/13 09:16:41;;;;;;;2.85;1.35;;;7.70;99.90;;;;;;4987206;28;20646;-71
2023/04/13 09:19:07;;;;;;;5.93;2.03;;;7.80;99.90;;;;;;5021631;28;20056;-71
2023/04/13 09:21:38;;;;;;;4.32;1.27;;;8.00;99.90;;;;;;5003923;28;20050;-71
2023/04/13 09:24:05;;;;;;;3.55;1.33;;;8.20;99.90;;;;;;4988091;28;20054;-71
2023/04/13 09:26:42;;;;;;;3.35;1.30;;;8.60;99.90;;;;;;5003853;28;20038;-72
2023/04/13 09:29:13;;;;;;;5.32;1.67;;;8.70;99.90;;;;;;5003059;28;20134;-72
2023/04/13 09:31:39;;;;;;;5.88;2.00;;;8.60;99.90;;;;;;5004291;28;20136;-72
2023/04/13 09:34:08;;;;;;;3.40;1.55;;;8.50;99.90;;;;;;4992405;28;20346;-72
2023/04/13 09:36:35;;;;;;;4.70;1.40;;;8.40;99.90;;;;;;5008147;28;20694;-72
2023/04/13 09:39:02;;;;;;;5.13;1.50;;;8.30;99.90;;;;;;4974267;28;20595;-71
2023/04/13 09:41:36;;;;;;;5.28;1.70;;;8.40;99.90;;;;;;4990978;28;20488;-75
2023/04/13 09:44:15;;;;;;;5.10;1.63;;;8.70;99.90;;;;;;5023785;28;20439;-71
2023/04/13 09:46:40;;;;;;;5.53;1.70;;;9.00;99.90;;;;;;5007620;28;20136;-72
2023/04/13 09:49:06;;;;;;;6.22;1.42;;;9.30;99.90;;;;;;4990647;28;20066;-72
2023/04/13 09:51:40;;;;;;;6.57;1.90;;;9.50;99.90;;;;;;4989904;28;20267;-72
2023/04/13 09:54:10;;;;;;;6.28;1.80;;;9.60;99.90;;;;;;4974459;28;20144;-71
2023/04/13 09:56:51;;;;;;;7.53;2.00;;;9.60;99.90;;;;;;5004829;28;20504;-72
2023/04/13 09:59:18;;;;;;;6.60;2.08;;;9.50;99.90;;;;;;5023196;28;20627;-72
2023/04/13 10:01:44;;;;;;;4.72;1.58;;;9.40;99.90;;;;;;5008043;28;20396;-72
2023/04/13 10:04:11;;;;;;;7.68;1.80;;;9.30;99.90;;;;;;5007968;28;20400;-72
2023/04/13 10:06:47;;;;;;;3.88;1.25;;;9.10;99.90;;;;;;5022470;28;20064;-73
2023/04/13 10:09:14;;;;;;;6.70;1.35;;;8.90;99.90;;;;;;5020225;28;20053;-71
2023/04/13 10:11:49;;;;;;;5.43;1.40;;;8.60;99.90;;;;;;5005491;28;20049;-73
2023/04/13 10:14:23;;;;;;;5.65;1.33;;;8.30;99.90;;;;;;5022624;28;20055;-73
2023/04/13 10:17:11;;;;;;;4.85;1.45;;;8.10;99.90;;;;;;5006945;28;20485;-73
2023/04/13 10:19:50;;;;;;;5.35;1.65;;;8.00;99.90;;;;;;5007597;28;20547;-72
2023/04/13 10:22:19;;;;;;;5.18;1.50;;;8.00;99.90;;;;;;5005884;28;20136;-73
2023/04/13 10:24:45;;;;;;;7.68;2.13;;;8.00;99.90;;;;;;5005653;28;20738;-73
2023/04/13 10:27:15;;;;;;;9.70;2.22;;;8.00;99.90;;;;;;4988455;28;20049;-73
2023/04/13 10:29:41;;;;;;;7.55;2.63;;;8.00;99.90;;;;;;5006420;28;21016;-72
2023/04/13 10:32:18;;;;;;;9.13;2.60;;;8.10;99.90;;;;;;5005838;28;20177;-73
2023/04/13 10:34:44;;;;;;;11.60;3.65;;;8.20;99.90;;;;;;5005312;28;20766;-72
2023/04/13 10:37:22;;;;;;;10.68;2.92;;;8.20;99.90;;;;;;4974400;28;20130;-73
2023/04/13 10:39:59;;;;;;;10.35;2.85;;;8.30;99.90;;;;;;5005830;28;20057;-73
2023/04/13 10:42:25;;;;;;;11.48;3.47;;;8.30;99.90;;;;;;5005414;28;20209;-72
2023/04/13 10:44:56;;;;;;;5.47;1.70;;;8.30;99.90;;;;;;4989190;28;20347;-73
2023/04/13 10:47:22;;;;;;;5.32;1.35;;;8.30;99.90;;;;;;4976311;28;20044;-72
2023/04/13 10:49:50;;;;;;;6.70;2.05;;;8.30;99.90;;;;;;4990199;28;20053;-72
2023/04/13 10:52:16;;;;;;;8.23;2.10;;;8.40;99.90;;;;;;4991481;28;20056;-73
2023/04/13 10:54:43;;;;;;;9.52;2.20;;;8.60;99.90;;;;;;5005928;28;20046;-72
2023/04/13 10:57:10;;;;;;;8.45;2.17;;;8.70;99.90;;;;;;4991305;28;20052;-73
2023/04/13 10:59:55;;;;;;;8.07;2.45;;;8.60;99.90;;;;;;4989633;28;20050;-72
2023/04/13 11:02:24;;;;;;;10.68;2.90;;;8.60;99.90;;;;;;4988084;28;20056;-72
2023/04/13 11:04:50;;;;;;;11.73;3.30;;;8.60;99.90;;;;;;5004268;28;20049;-72
2023/04/13 11:07:21;;;;;;;7.28;2.22;;;8.80;99.90;;;;;;5006116;28;20535;-72
2023/04/13 11:09:49;;;;;;;13.05;3.15;;;9.00;99.90;;;;;;4991609;28;20451;-72
2023/04/13 11:12:16;;;;;;;16.58;3.28;;;9.20;99.90;;;;;;5006530;28;20115;-72
2023/04/13 11:14:46;;;;;;;12.80;2.90;;;9.30;99.90;;;;;;4991801;28;20408;-72
2023/04/13 11:17:14;;;;;;;12.23;3.28;;;9.50;99.90;;;;;;5021517;28;20079;-72
2023/04/13 11:19:47;;;;;;;16.35;3.45;;;9.70;99.90;;;;;;4989737;28;20077;-72
2023/04/13 11:22:21;;;;;;;17.23;3.53;;;9.70;99.90;;;;;;5006017;28;20064;-72
2023/04/13 11:24:48;;;;;;;10.13;3.13;;;9.80;99.90;;;;;;4989281;28;20583;-72
2023/04/13 11:27:17;;;;;;;10.95;2.78;;;9.80;99.90;;;;;;4989075;28;20057;-74
2023/04/13 11:29:43;;;;;;;14.65;3.63;;;9.70;99.90;;;;;;5005167;28;20416;-72
2023/04/13 11:32:21;;;;;;;13.75;3.67;;;9.70;99.90;;;;;;4990706;28;20099;-72
2023/04/13 11:34:48;;;;;;;12.18;2.72;;;9.70;99.90;;;;;;5021472;28;20789;-72
2023/04/13 11:37:15;;;;;;;15.90;4.10;;;9.70;99.90;;;;;;4988814;28;20079;-74
2023/04/13 11:39:42;;;;;;;10.00;2.95;;;9.80;99.90;;;;;;5004248;28;21456;-71
2023/04/13 11:42:09;;;;;;;10.32;2.97;;;9.80;99.90;;;;;;5005307;28;20719;-72
2023/04/13 11:44:35;;;;;;;8.57;2.72;;;9.80;99.90;;;;;;5004118;28;20136;-72
2023/04/13 11:47:02;;;;;;;8.80;2.20;;;9.80;99.90;;;;;;4988255;28;20666;-71
2023/04/13 11:49:31;;;;;;;10.98;2.60;;;9.90;99.90;;;;;;5005127;28;20549;-71
2023/04/13 11:52:01;;;;;;;7.40;2.08;;;10.00;99.90;;;;;;4990005;28;20090;-72
2023/04/13 11:54:29;;;;;;;9.82;3.30;;;10.00;99.90;;;;;;5005698;28;20037;-76
2023/04/13 11:56:57;;;;;;;9.63;2.70;;;10.10;99.90;;;;;;4987347;28;20045;-75
2023/04/13 11:59:25;;;;;;;9.15;2.40;;;10.10;99.90;;;;;;5005269;28;20124;-72
2023/04/13 12:01:51;;;;;;;11.02;3.13;;;10.00;99.90;;;;;;5003970;28;20506;-72
2023/04/13 12:04:17;;;;;;;12.38;2.65;;;10.00;99.90;;;;;;5021219;28;20051;-71
2023/04/13 12:06:46;;;;;;;9.43;2.15;;;10.00;99.90;;;;;;5005237;28;20519;-72
2023/04/13 12:09:12;;;;;;;8.55;2.33;;;10.10;99.90;;;;;;4988228;28;20049;-72
2023/04/13 12:11:39;;;;;;;10.23;2.40;;;10.30;99.90;;;;;;4989064;28;20056;-72
2023/04/13 12:14:05;;;;;;;7.68;2.22;;;10.40;99.90;;;;;;5005255;28;20504;-73
2023/04/13 12:16:33;;;;;;;9.80;1.88;;;10.40;99.90;;;;;;4989524;28;20049;-72
2023/04/13 12:19:08;;;;;;;10.63;2.00;;;10.50;99.90;;;;;;4989739;28;20345;-71
2023/04/13 12:21:35;;;;;;;8.30;1.60;;;10.50;99.90;;;;;;5005465;28;20045;-72
2023/04/13 12:24:02;;;;;;;7.72;2.00;;;10.50;99.90;;;;;;5004607;28;20057;-75
2023/04/13 12:26:40;;;;;;;8.82;1.90;;;10.30;99.90;;;;;;5021215;28;20053;-74
2023/04/13 12:29:07;;;;;;;9.80;1.77;;;10.30;99.90;;;;;;5018196;28;20574;-74
2023/04/13 12:31:37;;;;;;;8.80;2.05;;;10.20;99.90;;;;;;5004255;28;20057;-74
2023/04/13 12:34:04;;;;;;;8.30;2.10;;;10.10;99.90;;;;;;4989527;28;20045;-75
2023/04/13 12:36:34;;;;;;;10.65;2.58;;;10.10;99.90;;;;;;5004662;28;20500;-75
2023/04/13 12:39:00;;;;;;;10.90;2.63;;;10.00;99.90;;;;;;5005587;28;20059;-75
2023/04/13 12:41:26;;;;;;;12.70;2.50;;;10.00;99.90;;;;;;4988874;28;20304;-76
2023/04/13 12:43:52;;;;;;;8.98;2.53;;;10.10;99.90;;;;;;4989132;28;20056;-75
2023/04/13 12:46:19;;;;;;;8.90;2.50;;;10.20;99.90;;;;;;5004401;28;20322;-75
2023/04/13 12:48:45;;;;;;;11.75;2.63;;;10.20;99.90;;;;;;5005129;28;20085;-75
2023/04/13 12:51:11;;;;;;;8.43;2.35;;;10.30;99.90;;;;;;5003614;28;20132;-74
2023/04/13 12:53:36;;;;;;;10.75;2.53;;;10.30;99.90;;;;;;4990250;28;20048;-75
2023/04/13 12:56:02;;;;;;;11.00;2.28;;;10.40;99.90;;;;;;4987317;28;20151;-75
2023/04/13 12:58:28;;;;;;;9.73;2.22;;;10.70;99.90;;;;;;4988990;28;20052;-74